Time;durP1;ratioP1;P1;durP2;ratioP2;P2;SDS_P1;SDS_P2;PMS_P1;PMS_P2;Temp;Humidity;BMP_temperature;BMP_pressure;BME280_temperature;BME280_humidity;BME280_pressure;Samples;Min_cycle;Max_cycle;Signal;HPM_P1;HPM_P2
2022/02/09 00:02:38;;;;;;;4.80;4.27;;;8.50;99.90;;;;;;5060063;28;20533;-63
2022/02/09 00:05:24;;;;;;;4.90;4.40;;;8.50;99.90;;;;;;5062994;28;20461;-63
2022/02/09 00:08:01;;;;;;;4.80;4.30;;;8.40;99.90;;;;;;5080526;28;20461;-62
2022/02/09 00:10:30;;;;;;;5.23;3.80;;;8.50;99.90;;;;;;5079563;28;20467;-62
2022/02/09 00:13:13;;;;;;;4.80;4.27;;;8.50;99.90;;;;;;5079820;28;20736;-62
2022/02/09 00:15:48;;;;;;;5.07;4.57;;;8.50;99.90;;;;;;5074734;28;20923;-62
2022/02/09 00:18:24;;;;;;;4.97;4.47;;;8.50;99.90;;;;;;5059986;28;20466;-62
2022/02/09 00:21:12;;;;;;;5.17;4.17;;;8.40;99.90;;;;;;5059367;28;20553;-63
2022/02/09 00:35:43;;;;;;;6.83;4.40;;;8.30;99.90;;;;;;5094829;27;20507;-63
2022/02/09 00:38:36;;;;;;;5.33;4.30;;;8.30;99.90;;;;;;5096004;28;20483;-63
2022/02/09 00:41:30;;;;;;;4.73;4.30;;;8.30;99.90;;;;;;5094787;28;20456;-62
2022/02/09 01:39:38;;;;;;;6.00;4.60;;;8.20;99.90;;;;;;5045223;28;20435;-63
2022/02/09 01:55:52;;;;;;;6.83;6.23;;;8.20;99.90;;;;;;5079628;28;20559;-63
2022/02/09 01:58:23;;;;;;;8.90;7.87;;;8.30;99.90;;;;;;5079260;28;20461;-63
2022/02/09 02:00:50;;;;;;;8.10;7.30;;;8.30;99.90;;;;;;5079097;28;20436;-63
2022/02/09 02:03:17;;;;;;;8.00;7.07;;;8.30;99.90;;;;;;5079573;28;20481;-63
2022/02/09 02:05:45;;;;;;;10.20;7.50;;;8.30;99.90;;;;;;5079299;28;20436;-61
2022/02/09 02:08:13;;;;;;;8.70;7.90;;;8.30;99.90;;;;;;5079323;28;20465;-63
2022/02/09 02:10:51;;;;;;;8.87;8.07;;;8.30;99.90;;;;;;5078812;28;20470;-63
2022/02/09 02:13:50;;;;;;;9.63;8.53;;;8.30;99.90;;;;;;5079727;28;20493;-63
2022/02/09 02:16:24;;;;;;;9.63;8.53;;;8.30;99.90;;;;;;5078572;28;20471;-63
2022/02/09 02:18:55;;;;;;;9.47;8.60;;;8.30;99.90;;;;;;5079393;28;20482;-63
2022/02/09 02:21:38;;;;;;;10.53;8.00;;;8.30;99.90;;;;;;5079122;28;20472;-63
2022/02/09 02:27:20;;;;;;;10.00;9.00;;;8.30;99.90;;;;;;4996985;28;20861;-63
2022/02/09 02:30:12;;;;;;;10.10;9.10;;;8.30;99.90;;;;;;5079456;28;20958;-60
2022/02/09 02:33:06;;;;;;;9.27;8.37;;;8.30;99.90;;;;;;5058924;28;20569;-61
2022/02/09 02:36:08;;;;;;;8.97;8.03;;;8.30;99.90;;;;;;5074671;28;20492;-63
2022/02/09 02:39:00;;;;;;;10.40;9.40;;;8.30;99.90;;;;;;5099402;28;20852;-62
2022/02/09 02:44:55;;;;;;;10.70;9.60;;;8.30;99.90;;;;;;5078215;28;20791;-62
2022/02/09 02:47:26;;;;;;;10.57;9.57;;;8.30;99.90;;;;;;5078731;28;20537;-63
2022/02/09 03:09:57;;;;;;;10.80;8.77;;;8.20;99.90;;;;;;5078555;28;20427;-63
2022/02/09 03:12:37;;;;;;;10.23;9.23;;;8.30;99.90;;;;;;5078284;28;20898;-63
2022/02/09 03:15:20;;;;;;;10.17;9.17;;;8.30;99.90;;;;;;5079170;28;20913;-63
2022/02/09 03:18:01;;;;;;;10.00;8.83;;;8.20;99.90;;;;;;5078478;28;20473;-63
2022/02/09 03:20:36;;;;;;;9.90;8.90;;;8.30;99.90;;;;;;5078214;28;20563;-63
2022/02/09 03:23:15;;;;;;;12.20;9.67;;;8.30;99.90;;;;;;5078308;28;20731;-64
2022/02/09 03:26:05;;;;;;;13.60;11.07;;;8.20;99.90;;;;;;5079043;28;20483;-64
2022/02/09 03:47:50;;;;;;;12.00;10.90;;;8.10;99.90;;;;;;5042219;28;20477;-65
2022/02/09 03:50:41;;;;;;;13.10;11.80;;;8.00;99.90;;;;;;5077618;28;20514;-64
2022/02/09 03:53:21;;;;;;;13.93;11.70;;;8.00;99.90;;;;;;5077367;28;20465;-64
2022/02/09 03:56:23;;;;;;;12.63;11.33;;;8.00;99.90;;;;;;5078261;28;20472;-63
2022/02/09 03:58:50;;;;;;;13.03;11.73;;;7.90;99.90;;;;;;5077533;28;20467;-63
2022/02/09 04:01:20;;;;;;;15.53;13.10;;;8.00;99.90;;;;;;5077274;28;20495;-62
2022/02/09 04:03:47;;;;;;;13.53;12.07;;;7.90;99.90;;;;;;5077133;28;20825;-63
2022/02/09 04:06:15;;;;;;;14.03;12.57;;;7.90;99.90;;;;;;5077357;28;20468;-63
2022/02/09 04:08:48;;;;;;;15.70;12.63;;;7.90;99.90;;;;;;5078821;28;20825;-63
2022/02/09 04:11:21;;;;;;;16.03;14.43;;;7.90;99.90;;;;;;5078421;28;20465;-62
2022/02/09 04:13:56;;;;;;;15.83;14.17;;;8.00;99.90;;;;;;5079147;28;20491;-63
2022/02/09 04:16:41;;;;;;;16.60;14.40;;;7.90;99.90;;;;;;5079169;28;20773;-63
2022/02/09 04:19:19;;;;;;;18.53;14.70;;;7.90;99.90;;;;;;5079075;28;20468;-63
2022/02/09 04:38:51;;;;;;;13.23;11.83;;;7.90;99.90;;;;;;5055552;28;20748;-62
2022/02/09 04:52:53;;;;;;;11.83;10.67;;;7.70;99.90;;;;;;5067221;28;20724;-63
2022/02/09 04:58:23;;;;;;;10.10;8.80;;;7.70;99.90;;;;;;5028972;28;20444;-64
2022/02/09 05:01:01;;;;;;;9.40;8.00;;;7.70;99.90;;;;;;5076691;28;20468;-64
2022/02/09 05:04:04;;;;;;;9.33;7.70;;;7.60;99.90;;;;;;5076167;28;20955;-64
2022/02/09 05:18:07;;;;;;;8.60;7.70;;;7.70;99.90;;;;;;5069429;28;20468;-65
2022/02/09 05:23:43;;;;;;;9.63;7.73;;;7.70;99.90;;;;;;5080328;28;20444;-65
2022/02/09 05:26:21;;;;;;;9.20;7.50;;;7.80;99.90;;;;;;5080608;28;20457;-65
2022/02/09 05:28:48;;;;;;;10.27;7.60;;;7.80;99.90;;;;;;5080534;28;20501;-65
2022/02/09 05:31:15;;;;;;;8.17;7.30;;;7.70;99.90;;;;;;5080995;28;20921;-65
2022/02/09 05:33:44;;;;;;;11.00;7.53;;;7.80;99.90;;;;;;5080360;28;20480;-65
2022/02/09 05:36:11;;;;;;;8.73;7.20;;;7.70;99.90;;;;;;5090810;28;20535;-65
2022/02/09 05:38:40;;;;;;;10.27;9.03;;;7.80;99.90;;;;;;5090764;28;20935;-65
2022/02/09 05:41:07;;;;;;;12.13;8.40;;;7.80;99.90;;;;;;5080172;28;20465;-66
2022/02/09 05:43:35;;;;;;;9.37;8.30;;;7.80;99.90;;;;;;5080475;28;20461;-66
2022/02/09 05:46:36;;;;;;;10.33;9.00;;;7.80;99.90;;;;;;5079665;28;20469;-66
2022/02/09 05:51:50;;;;;;;16.40;13.77;;;7.80;99.90;;;;;;5079760;28;20514;-66
2022/02/09 05:54:38;;;;;;;9.03;8.23;;;7.70;99.90;;;;;;5079044;28;20608;-66
2022/02/09 05:57:24;;;;;;;7.40;5.10;;;7.70;99.90;;;;;;5079990;28;20518;-66
2022/02/09 05:59:53;;;;;;;4.90;4.40;;;7.70;99.90;;;;;;5079943;28;20876;-66
2022/02/09 06:02:21;;;;;;;5.80;4.90;;;7.80;99.90;;;;;;5079516;28;20918;-66
2022/02/09 06:04:48;;;;;;;7.80;5.13;;;7.90;99.90;;;;;;5078499;28;20749;-66
2022/02/09 06:07:20;;;;;;;5.10;4.60;;;7.90;99.90;;;;;;5079003;28;20476;-66
2022/02/09 06:09:50;;;;;;;5.00;4.50;;;7.90;99.90;;;;;;5077556;28;20796;-65
2022/02/09 06:12:22;;;;;;;5.90;4.70;;;7.90;99.90;;;;;;5078271;28;20457;-65
2022/02/09 06:15:15;;;;;;;8.37;5.23;;;7.90;99.90;;;;;;5078979;28;20493;-65
2022/02/09 06:20:27;;;;;;;7.60;5.97;;;7.90;99.90;;;;;;5076927;28;20436;-65
2022/02/09 06:22:54;;;;;;;8.17;6.70;;;7.90;99.90;;;;;;5078690;28;20462;-65
2022/02/09 06:25:23;;;;;;;7.53;6.20;;;7.90;99.90;;;;;;5079276;28;20453;-65
2022/02/09 06:27:51;;;;;;;7.47;6.67;;;7.90;99.90;;;;;;5078080;28;20518;-65
2022/02/09 06:30:18;;;;;;;9.10;7.60;;;7.90;99.90;;;;;;5077234;28;20497;-65
2022/02/09 06:32:45;;;;;;;9.80;7.60;;;7.90;99.90;;;;;;5077357;28;20556;-65
2022/02/09 06:35:12;;;;;;;7.80;7.00;;;7.90;99.90;;;;;;5077858;28;20828;-63
2022/02/09 06:37:44;;;;;;;10.50;7.97;;;7.90;99.90;;;;;;5077229;28;20511;-64
2022/02/09 06:40:15;;;;;;;12.13;8.00;;;7.90;99.90;;;;;;5077734;28;20468;-63
2022/02/09 06:42:47;;;;;;;8.97;7.90;;;7.90;99.90;;;;;;5077906;28;20465;-63
2022/02/09 06:45:19;;;;;;;9.10;8.20;;;7.90;99.90;;;;;;5077975;28;20468;-63
2022/02/09 06:47:46;;;;;;;11.10;8.90;;;7.90;99.90;;;;;;5077623;28;20730;-63
2022/02/09 06:50:21;;;;;;;11.50;10.03;;;7.90;99.90;;;;;;5078352;28;20211;-64
2022/02/09 06:52:58;;;;;;;12.97;10.60;;;8.00;99.90;;;;;;5078117;28;20483;-63
2022/02/09 06:55:25;;;;;;;19.33;13.00;;;7.90;99.90;;;;;;5079081;28;20543;-63
2022/02/09 06:58:16;;;;;;;23.90;13.93;;;7.90;99.90;;;;;;5078034;28;20484;-63
2022/02/09 07:00:44;;;;;;;18.23;12.97;;;7.90;99.90;;;;;;5078539;28;20601;-63
2022/02/09 07:03:11;;;;;;;14.83;11.00;;;7.90;99.90;;;;;;5077392;28;20462;-63
2022/02/09 07:05:38;;;;;;;18.10;10.83;;;8.00;99.90;;;;;;5078520;28;20435;-63
2022/02/09 07:08:06;;;;;;;18.60;14.30;;;8.00;99.90;;;;;;5077803;28;20461;-63
2022/02/09 07:10:33;;;;;;;13.03;10.90;;;8.00;99.90;;;;;;5078187;28;20461;-63
2022/02/09 07:13:01;;;;;;;9.70;8.33;;;8.00;99.90;;;;;;5077605;28;20462;-63
2022/02/09 07:15:32;;;;;;;10.00;8.87;;;8.00;99.90;;;;;;5077887;28;20486;-64
2022/02/09 07:18:06;;;;;;;11.90;9.70;;;8.00;99.90;;;;;;5077617;28;20483;-63
2022/02/09 07:20:42;;;;;;;13.63;10.17;;;7.90;99.90;;;;;;5078482;28;20471;-63
2022/02/09 07:23:19;;;;;;;11.80;9.73;;;8.00;99.90;;;;;;5076877;28;20476;-64
2022/02/09 07:25:58;;;;;;;14.00;10.43;;;8.00;99.90;;;;;;5078263;28;20461;-63
2022/02/09 07:28:27;;;;;;;12.30;10.17;;;7.90;99.90;;;;;;5077578;28;20465;-63
2022/02/09 07:30:57;;;;;;;11.83;10.23;;;7.90;99.90;;;;;;5077932;28;20894;-63
2022/02/09 07:33:29;;;;;;;12.00;10.80;;;7.90;99.90;;;;;;5077055;28;20815;-63
2022/02/09 07:35:57;;;;;;;12.20;10.93;;;7.90;99.90;;;;;;5085726;28;20488;-62
2022/02/09 07:38:24;;;;;;;14.03;10.67;;;7.80;99.90;;;;;;5091451;28;20826;-63
2022/02/09 07:40:56;;;;;;;14.90;11.53;;;7.80;99.90;;;;;;5077949;28;20461;-62
2022/02/09 07:43:27;;;;;;;13.17;11.77;;;7.80;99.90;;;;;;5077310;28;20462;-62
2022/02/09 07:48:52;;;;;;;14.20;11.70;;;7.80;99.90;;;;;;5076611;28;20427;-62
2022/02/09 07:54:12;;;;;;;16.67;12.60;;;7.70;99.90;;;;;;5056313;28;20750;-62
2022/02/09 07:56:41;;;;;;;14.87;11.43;;;7.70;99.90;;;;;;5077139;28;20462;-62
2022/02/09 07:59:10;;;;;;;12.80;10.70;;;7.70;99.90;;;;;;5077267;28;20465;-62
2022/02/09 08:01:40;;;;;;;13.50;11.33;;;7.70;99.90;;;;;;5077501;28;20457;-62
2022/02/09 08:04:07;;;;;;;13.90;11.53;;;7.70;99.90;;;;;;5077421;28;20534;-62
2022/02/09 08:06:35;;;;;;;15.30;11.70;;;7.80;99.90;;;;;;5076925;28;20507;-62
2022/02/09 08:09:12;;;;;;;16.03;12.73;;;7.80;99.90;;;;;;5077292;28;20465;-62
2022/02/09 08:11:49;;;;;;;15.57;11.70;;;7.80;99.90;;;;;;5077429;28;20460;-61
2022/02/09 08:30:48;;;;;;;13.60;11.10;;;7.90;99.90;;;;;;5074033;28;20430;-62
2022/02/09 08:33:18;;;;;;;11.83;10.37;;;7.80;99.90;;;;;;5077294;28;20460;-62
2022/02/09 08:35:46;;;;;;;13.07;11.70;;;7.90;99.90;;;;;;5077091;28;20539;-62
2022/02/09 08:38:14;;;;;;;14.20;11.90;;;7.90;99.90;;;;;;5075998;28;20461;-62
2022/02/09 08:40:41;;;;;;;13.20;11.30;;;7.90;99.90;;;;;;5076178;28;20586;-62
2022/02/09 08:43:10;;;;;;;12.27;10.70;;;7.90;99.90;;;;;;5077114;28;20519;-62
2022/02/09 08:45:38;;;;;;;13.57;10.63;;;7.90;99.90;;;;;;5077370;28;20519;-62
2022/02/09 08:48:10;;;;;;;13.40;10.00;;;7.90;99.90;;;;;;5076449;28;20895;-62
2022/02/09 08:50:39;;;;;;;13.63;10.80;;;7.90;99.90;;;;;;5077196;28;20551;-62
2022/02/09 08:53:10;;;;;;;11.67;9.60;;;7.90;99.90;;;;;;5076421;28;20468;-62
2022/02/09 08:55:40;;;;;;;13.33;10.03;;;8.00;99.90;;;;;;5078686;28;20468;-62
2022/02/09 08:58:08;;;;;;;11.93;10.30;;;8.10;99.90;;;;;;5080557;28;20797;-62
2022/02/09 09:00:37;;;;;;;10.27;9.20;;;8.20;99.90;;;;;;5081174;28;20468;-63
2022/02/09 09:03:13;;;;;;;12.33;9.63;;;8.40;99.90;;;;;;5080438;28;20493;-62
2022/02/09 09:05:46;;;;;;;10.63;9.53;;;8.50;99.90;;;;;;5081348;28;20472;-63
2022/02/09 09:08:36;;;;;;;10.43;9.37;;;8.60;99.90;;;;;;5080262;28;20465;-63
2022/02/09 09:11:22;;;;;;;11.47;8.77;;;8.60;99.90;;;;;;5080946;28;20487;-63
2022/02/09 09:58:25;;;;;;;5.37;4.57;;;9.30;1.00;;;;;;5078622;28;20455;-63
2022/02/09 10:04:03;;;;;;;4.80;4.30;;;9.20;1.00;;;;;;5062843;28;20958;-64
2022/02/09 10:34:22;;;;;;;8.10;7.30;;;8.70;99.90;;;;;;5037461;28;20768;-63
2022/02/09 10:36:52;;;;;;;7.30;5.93;;;8.70;99.90;;;;;;5078745;28;20486;-63
2022/02/09 10:39:25;;;;;;;8.20;6.40;;;8.70;99.90;;;;;;5078933;28;20472;-63
2022/02/09 10:42:13;;;;;;;8.27;7.47;;;8.80;1.00;;;;;;5078562;28;20461;-63
2022/02/09 10:44:45;;;;;;;8.40;7.00;;;8.70;1.00;;;;;;5078619;28;20479;-63
2022/02/09 10:47:23;;;;;;;8.47;7.67;;;8.70;1.00;;;;;;5078796;28;20722;-63
2022/02/09 10:50:10;;;;;;;9.37;8.47;;;8.60;1.00;;;;;;5078363;28;20492;-63
2022/02/09 10:52:40;;;;;;;9.97;7.97;;;8.70;1.00;;;;;;5078007;28;20809;-63
2022/02/09 10:55:29;;;;;;;8.87;7.97;;;8.70;1.00;;;;;;5078562;28;20497;-64
2022/02/09 10:58:03;;;;;;;9.63;8.57;;;8.70;1.00;;;;;;5078560;28;20882;-63
2022/02/09 11:00:32;;;;;;;8.90;8.00;;;8.70;1.00;;;;;;5078655;28;20465;-63
2022/02/09 11:02:59;;;;;;;10.00;8.70;;;8.60;1.00;;;;;;5077813;28;20465;-63
2022/02/09 11:05:27;;;;;;;10.50;8.03;;;8.70;55.00;;;;;;5074694;28;20461;-62
2022/02/09 11:07:55;;;;;;;9.07;8.10;;;8.70;99.90;;;;;;5078145;28;20461;-63
2022/02/09 11:10:23;;;;;;;9.30;8.30;;;8.70;99.90;;;;;;5078410;28;20891;-62
2022/02/09 11:12:53;;;;;;;10.17;8.37;;;8.80;77.70;;;;;;5078037;28;20461;-62
2022/02/09 11:15:30;;;;;;;13.97;10.10;;;8.80;1.00;;;;;;5077504;28;20550;-62
2022/02/09 11:17:59;;;;;;;11.80;9.43;;;8.90;1.00;;;;;;5077427;28;20443;-62
2022/02/09 11:20:31;;;;;;;12.63;8.83;;;8.90;1.00;;;;;;5078144;28;20491;-63
2022/02/09 11:23:02;;;;;;;10.00;9.00;;;8.90;99.90;;;;;;5078112;28;20511;-62
2022/02/09 11:25:32;;;;;;;11.50;8.73;;;8.90;99.90;;;;;;5076987;28;20782;-62
2022/02/09 11:28:30;;;;;;;13.03;8.03;;;8.90;1.00;;;;;;5077599;28;20461;-62
2022/02/09 11:31:04;;;;;;;9.30;8.07;;;8.80;1.00;;;;;;5078017;28;20469;-62
2022/02/09 11:34:13;;;;;;;12.63;8.87;;;8.70;1.00;;;;;;5077835;28;20508;-62
2022/02/09 11:36:59;;;;;;;9.90;7.93;;;8.70;99.90;;;;;;5085293;28;20775;-62
2022/02/09 11:39:43;;;;;;;11.90;8.70;;;8.70;99.90;;;;;;5088420;28;20465;-62
2022/02/09 11:42:39;;;;;;;11.07;8.97;;;8.60;99.90;;;;;;5077627;28;20518;-62
2022/02/09 11:45:30;;;;;;;12.63;9.30;;;8.70;99.90;;;;;;5077020;28;20466;-63
2022/02/09 11:48:15;;;;;;;11.23;9.27;;;8.70;99.90;;;;;;5077800;28;20773;-59
2022/02/09 11:51:12;;;;;;;13.20;9.00;;;8.80;99.90;;;;;;5072131;28;20886;-60
2022/02/09 12:11:09;;;;;;;7.93;7.13;;;9.70;1.00;;;;;;5075170;28;20518;-61
2022/02/09 12:13:53;;;;;;;10.43;7.80;;;9.80;1.00;;;;;;5072078;28;20474;-61
2022/02/09 12:16:42;;;;;;;8.80;7.27;;;10.10;99.90;;;;;;5074976;28;20984;-61
2022/02/09 12:19:12;;;;;;;8.53;7.30;;;10.30;71.30;;;;;;5077315;28;20495;-60
2022/02/09 12:21:49;;;;;;;10.00;6.37;;;10.40;1.00;;;;;;5074193;28;20469;-58
2022/02/09 12:24:26;;;;;;;8.07;6.90;;;10.50;1.00;;;;;;5072320;28;20560;-60
2022/02/09 12:27:00;;;;;;;7.47;6.63;;;10.50;1.00;;;;;;5072103;28;20468;-59
2022/02/09 12:29:35;;;;;;;8.10;6.97;;;10.20;1.00;;;;;;5074423;28;20551;-58
2022/02/09 12:32:23;;;;;;;6.80;5.40;;;10.10;1.00;;;;;;5071886;28;20539;-60
2022/02/09 12:34:55;;;;;;;14.97;7.37;;;10.00;1.00;;;;;;5075351;28;20481;-60
2022/02/09 12:37:25;;;;;;;8.43;6.30;;;10.00;1.00;;;;;;5095764;28;20550;-61
2022/02/09 12:39:56;;;;;;;8.57;5.93;;;10.20;1.00;;;;;;5073331;28;20568;-60
2022/02/09 12:42:29;;;;;;;6.97;6.27;;;10.40;1.00;;;;;;5075870;28;20465;-60
2022/02/09 12:45:02;;;;;;;10.67;5.87;;;10.70;1.00;;;;;;5081390;28;20558;-57
2022/02/09 12:47:33;;;;;;;7.77;6.17;;;11.00;1.00;;;;;;5074804;28;20503;-60
2022/02/09 12:50:04;;;;;;;10.30;6.50;;;11.30;1.00;;;;;;5076022;28;20772;-59
2022/02/09 12:52:39;;;;;;;11.70;7.80;;;11.20;1.00;;;;;;5070543;28;20457;-60
2022/02/09 12:55:12;;;;;;;9.07;6.83;;;11.30;1.00;;;;;;5076506;28;20522;-60
2022/02/09 12:57:47;;;;;;;12.40;7.83;;;11.50;1.00;;;;;;5075997;28;20552;-60
2022/02/09 13:00:27;;;;;;;6.67;5.83;;;11.20;1.00;;;;;;5076435;28;20810;-59
2022/02/09 13:02:56;;;;;;;9.90;7.10;;;10.80;1.00;;;;;;5076137;28;20491;-59
2022/02/09 13:05:24;;;;;;;9.73;6.77;;;10.50;1.00;;;;;;5075302;28;20461;-60
2022/02/09 13:07:55;;;;;;;7.10;5.40;;;10.40;1.00;;;;;;5075830;28;20465;-60
2022/02/09 13:10:31;;;;;;;10.27;6.60;;;10.20;1.00;;;;;;5076208;28;20454;-57
2022/02/09 13:13:05;;;;;;;5.90;5.30;;;10.00;1.00;;;;;;5074337;28;20477;-57
2022/02/09 13:15:42;;;;;;;9.10;4.70;;;10.00;1.00;;;;;;5078269;28;20507;-58
2022/02/09 13:18:44;;;;;;;6.87;5.83;;;9.90;1.00;;;;;;5075138;28;20465;-58
2022/02/09 14:32:36;;;;;;;4.87;4.20;;;9.90;1.00;;;;;;5078385;28;20487;-56
2022/02/09 14:54:10;;;;;;;6.33;4.27;;;9.90;1.00;;;;;;5058854;28;20447;-58
2022/02/09 14:56:53;;;;;;;8.40;4.50;;;9.90;1.00;;;;;;5075563;28;20489;-58
2022/02/09 14:59:34;;;;;;;5.43;4.70;;;9.90;1.00;;;;;;5078709;28;20467;-60
2022/02/09 15:02:06;;;;;;;6.77;4.83;;;9.80;1.00;;;;;;5077716;28;20457;-60
2022/02/09 15:04:49;;;;;;;6.47;4.50;;;9.90;1.00;;;;;;5078506;28;20579;-60
2022/02/09 15:07:28;;;;;;;6.83;4.60;;;9.90;1.00;;;;;;5076718;28;20446;-58
2022/02/09 15:10:01;;;;;;;8.20;4.90;;;9.90;1.00;;;;;;5077233;28;20870;-60
2022/02/09 15:12:48;;;;;;;5.60;4.40;;;9.90;1.00;;;;;;5076334;28;20473;-60
2022/02/09 15:15:26;;;;;;;9.23;5.60;;;9.80;1.00;;;;;;5074429;28;20853;-57
2022/02/09 15:18:20;;;;;;;8.40;4.63;;;9.70;1.00;;;;;;5064420;28;20586;-59
2022/02/09 15:21:02;;;;;;;6.73;5.07;;;9.70;1.00;;;;;;5056672;28;20462;-57
2022/02/09 15:23:34;;;;;;;8.90;6.43;;;9.70;1.00;;;;;;5063147;28;20745;-58
2022/02/09 15:26:02;;;;;;;6.30;4.10;;;9.70;1.00;;;;;;5076161;28;20465;-59
2022/02/09 15:28:29;;;;;;;10.53;5.60;;;9.70;1.00;;;;;;5075837;28;20453;-55
2022/02/09 15:31:06;;;;;;;6.17;4.43;;;9.70;1.00;;;;;;5077004;28;20511;-53
2022/02/09 15:33:39;;;;;;;7.30;4.50;;;9.70;1.00;;;;;;5077342;28;20914;-60
2022/02/09 15:36:10;;;;;;;6.40;4.40;;;9.70;1.00;;;;;;5046580;28;20458;-59
2022/02/09 15:38:45;;;;;;;6.53;4.47;;;9.70;1.00;;;;;;5048386;28;20521;-59
2022/02/09 15:41:19;;;;;;;7.93;5.00;;;9.70;1.00;;;;;;5022322;28;20495;-57
2022/02/09 16:06:24;;;;;;;11.60;5.30;;;9.50;1.00;;;;;;5004696;28;20543;-60
2022/02/09 16:09:13;;;;;;;8.17;5.47;;;9.40;1.00;;;;;;5031364;28;20550;-60
2022/02/09 16:17:53;;;;;;;9.53;5.50;;;9.30;1.00;;;;;;5034916;28;20621;-60
2022/02/09 16:23:05;;;;;;;10.03;5.80;;;9.10;1.00;;;;;;5036752;28;20422;-59
2022/02/09 16:45:13;;;;;;;8.30;4.50;;;9.00;1.00;;;;;;5076202;28;20440;-58
2022/02/09 16:50:38;;;;;;;7.20;4.27;;;9.10;1.00;;;;;;5024471;28;20549;-59
2022/02/09 16:53:19;;;;;;;6.93;5.23;;;9.00;1.00;;;;;;5074394;28;20501;-60
2022/02/09 16:56:20;;;;;;;7.37;4.93;;;9.00;1.00;;;;;;5076620;28;20465;-59
2022/02/09 17:15:43;;;;;;;7.53;5.10;;;9.00;1.00;;;;;;5076422;28;20432;-58
2022/02/09 17:20:57;;;;;;;8.43;5.10;;;9.00;27.00;;;;;;5080111;28;20437;-59
2022/02/09 17:23:24;;;;;;;5.67;4.57;;;8.90;91.80;;;;;;5080422;28;20465;-59
2022/02/09 17:25:53;;;;;;;9.27;5.50;;;8.90;99.90;;;;;;5080214;28;20526;-58
2022/02/09 17:28:22;;;;;;;8.30;5.30;;;8.90;99.90;;;;;;5079659;28;20464;-60
2022/02/09 17:34:03;;;;;;;10.57;6.50;;;9.00;99.90;;;;;;5080008;28;20441;-59
2022/02/09 17:36:43;;;;;;;10.60;6.70;;;8.90;99.90;;;;;;5092097;28;20467;-58
2022/02/09 17:39:25;;;;;;;10.83;7.13;;;8.90;99.90;;;;;;5096285;28;20457;-57
2022/02/09 17:58:25;;;;;;;8.57;5.80;;;8.40;99.90;;;;;;5076255;28;20481;-58
2022/02/09 18:00:55;;;;;;;10.30;7.07;;;8.20;1.00;;;;;;5077170;28;20902;-58
2022/02/09 18:03:25;;;;;;;7.93;6.30;;;8.10;1.00;;;;;;5077728;28;20457;-57
2022/02/09 18:06:07;;;;;;;9.20;6.83;;;8.00;1.00;;;;;;5075814;28;20473;-59
2022/02/09 18:08:40;;;;;;;8.40;7.50;;;8.00;1.00;;;;;;5075865;28;20424;-59
2022/02/09 18:11:18;;;;;;;9.80;7.30;;;7.90;1.00;;;;;;5077861;28;20560;-59
2022/02/09 18:30:30;;;;;;;15.17;8.83;;;7.20;99.90;;;;;;5075780;28;20426;-57
2022/02/09 18:44:23;;;;;;;13.53;9.37;;;6.90;1.00;;;;;;5075415;28;20417;-56
2022/02/09 18:47:08;;;;;;;11.80;9.27;;;6.80;44.10;;;;;;5076672;28;20543;-59
2022/02/09 19:03:29;;;;;;;12.73;8.63;;;6.90;1.00;;;;;;5074195;28;20528;-60
2022/02/09 19:06:01;;;;;;;16.40;11.50;;;6.80;1.00;;;;;;5076658;28;20825;-59
2022/02/09 19:14:24;;;;;;;12.67;7.10;;;6.80;99.90;;;;;;5076950;28;20433;-57
2022/02/09 19:16:58;;;;;;;12.30;7.07;;;6.80;27.80;;;;;;5076659;28;20539;-59
2022/02/09 19:19:51;;;;;;;7.90;6.70;;;6.80;1.00;;;;;;5074277;28;20461;-56
2022/02/09 19:30:47;;;;;;;15.30;7.10;;;6.60;1.00;;;;;;5075977;28;20864;-60
2022/02/09 19:47:05;;;;;;;11.33;7.67;;;6.80;1.00;;;;;;5013821;28;20440;-60
2022/02/09 19:52:30;;;;;;;9.77;7.60;;;6.70;99.90;;;;;;5072113;28;20786;-60
2022/02/09 19:55:18;;;;;;;12.90;7.93;;;6.70;6.40;;;;;;5075835;28;20457;-59
2022/02/09 19:57:48;;;;;;;12.37;9.03;;;6.60;99.90;;;;;;5073971;28;20561;-59
2022/02/09 20:00:20;;;;;;;12.90;8.60;;;6.60;1.00;;;;;;5075037;28;20484;-60
2022/02/09 20:02:48;;;;;;;12.30;8.47;;;6.60;99.90;;;;;;5073780;28;20457;-59
2022/02/09 20:05:17;;;;;;;14.20;8.10;;;6.60;99.90;;;;;;5074534;28;20548;-60
2022/02/09 20:07:44;;;;;;;10.63;8.30;;;6.60;99.90;;;;;;5074438;28;20453;-60
2022/02/09 20:10:21;;;;;;;12.53;8.40;;;6.60;99.90;;;;;;5074179;28;20454;-59
2022/02/09 20:12:51;;;;;;;12.53;9.40;;;6.60;99.90;;;;;;5072721;28;20522;-60
2022/02/09 20:15:20;;;;;;;12.90;8.90;;;6.50;1.00;;;;;;5075603;28;20461;-57
2022/02/09 20:17:47;;;;;;;12.60;8.50;;;6.50;1.00;;;;;;5076017;28;20520;-60
2022/02/09 20:20:22;;;;;;;12.93;9.63;;;6.50;99.90;;;;;;5076843;28;20515;-59
2022/02/09 20:22:51;;;;;;;11.27;8.60;;;6.50;1.00;;;;;;5077218;28;20549;-59
2022/02/09 20:25:19;;;;;;;12.40;8.90;;;6.50;1.00;;;;;;5075996;28;20461;-58
2022/02/09 20:27:49;;;;;;;17.67;9.60;;;6.50;25.30;;;;;;5074250;28;20446;-60
2022/02/09 20:30:19;;;;;;;12.80;8.40;;;6.50;99.90;;;;;;5069805;28;20484;-59
2022/02/09 20:32:51;;;;;;;13.27;9.43;;;6.50;99.90;;;;;;5072804;28;20553;-58
2022/02/09 20:35:19;;;;;;;14.60;8.40;;;6.50;1.00;;;;;;5077003;28;20526;-60
2022/02/09 20:37:52;;;;;;;9.33;7.23;;;6.50;1.00;;;;;;5075238;28;20554;-55
2022/02/09 20:40:22;;;;;;;11.87;9.13;;;6.50;1.00;;;;;;5072411;28;20469;-59
2022/02/09 20:42:57;;;;;;;11.33;7.30;;;6.50;1.00;;;;;;5075424;28;20865;-60
2022/02/09 20:45:31;;;;;;;10.53;8.40;;;6.50;20.30;;;;;;5073560;28;20552;-60
2022/02/09 20:48:04;;;;;;;12.50;7.90;;;6.50;1.70;;;;;;5075045;28;20432;-55
2022/02/09 20:50:32;;;;;;;13.17;9.57;;;6.50;99.90;;;;;;5076978;28;20472;-58
2022/02/09 20:52:59;;;;;;;10.23;8.13;;;6.50;77.00;;;;;;5079273;28;20477;-58
2022/02/09 20:55:29;;;;;;;15.10;9.07;;;6.60;99.90;;;;;;5079516;28;20457;-59
2022/02/09 20:57:56;;;;;;;13.20;10.50;;;6.60;87.20;;;;;;5079212;28;20499;-55
2022/02/09 21:00:32;;;;;;;13.87;9.67;;;6.60;24.80;;;;;;5078902;28;20454;-57
2022/02/09 21:03:14;;;;;;;11.90;9.87;;;6.60;10.50;;;;;;5077977;28;20441;-59
2022/02/09 21:05:52;;;;;;;9.90;8.60;;;6.60;1.00;;;;;;5075431;28;20461;-58
2022/02/09 21:11:11;;;;;;;14.23;9.43;;;6.60;22.10;;;;;;5062051;28;20736;-59
2022/02/09 21:13:49;;;;;;;10.83;8.90;;;6.60;6.50;;;;;;5070711;28;20465;-59
2022/02/09 21:16:37;;;;;;;17.27;9.43;;;6.60;14.90;;;;;;5058882;28;20496;-57
2022/02/09 21:25:12;;;;;;;16.27;9.23;;;6.60;1.00;;;;;;5078732;28;20452;-60
2022/02/09 21:41:39;;;;;;;11.43;9.37;;;6.60;1.00;;;;;;5073250;28;20428;-59
2022/02/09 21:53:11;;;;;;;15.00;9.77;;;6.90;1.00;;;;;;5079545;28;20528;-55
2022/02/09 21:55:53;;;;;;;15.23;10.10;;;6.90;1.00;;;;;;5060122;28;20548;-58
2022/02/09 21:58:34;;;;;;;12.77;9.30;;;6.90;1.00;;;;;;5059822;28;20608;-53
2022/02/09 22:06:51;;;;;;;11.57;9.03;;;6.90;1.00;;;;;;5058964;28;20444;-55
2022/02/09 22:20:38;;;;;;;23.57;16.37;;;6.70;1.00;;;;;;5076991;28;20574;-56
2022/02/09 22:23:31;;;;;;;23.53;15.43;;;6.70;20.50;;;;;;5079127;28;20889;-55
2022/02/09 22:28:55;;;;;;;17.03;11.60;;;6.60;99.90;;;;;;5078288;28;20465;-58
2022/02/09 22:31:38;;;;;;;14.97;11.37;;;6.60;99.90;;;;;;5079201;28;20493;-55
2022/02/09 22:45:35;;;;;;;14.70;10.03;;;6.50;99.90;;;;;;5078441;28;20472;-55
2022/02/09 22:48:17;;;;;;;11.17;9.50;;;6.50;1.00;;;;;;5078728;28;20904;-55
2022/02/09 22:50:52;;;;;;;12.10;9.13;;;6.40;99.90;;;;;;5077993;28;20466;-54
2022/02/09 22:56:04;;;;;;;11.10;9.30;;;6.40;1.00;;;;;;5076812;28;20440;-54
2022/02/09 22:58:33;;;;;;;12.00;9.57;;;6.40;1.00;;;;;;5078210;28;20493;-53
2022/02/09 23:01:10;;;;;;;15.60;10.10;;;6.40;1.00;;;;;;5078086;28;20488;-56
2022/02/09 23:03:54;;;;;;;12.33;10.30;;;6.40;1.00;;;;;;5078779;28;20510;-56
2022/02/09 23:06:33;;;;;;;12.77;10.23;;;6.40;1.00;;;;;;5077843;28;20462;-54
2022/02/09 23:12:10;;;;;;;18.63;12.20;;;6.40;1.00;;;;;;5077930;28;20571;-56
2022/02/09 23:14:47;;;;;;;15.90;11.63;;;6.30;1.00;;;;;;5076956;28;20461;-56
2022/02/09 23:20:37;;;;;;;14.53;10.10;;;6.20;1.00;;;;;;5078265;28;20750;-54
2022/02/09 23:53:46;;;;;;;14.40;10.50;;;5.40;1.00;;;;;;5076922;28;20448;-52
2022/02/09 23:56:41;;;;;;;14.40;10.53;;;5.30;1.00;;;;;;5077337;28;20460;-53
